Home > Products > Valid Products > MTR

000
SAUS43 KUNR 311257
MTRD07
METAR KD07 311256Z AUTO 06014KT M04/M06 A3007 RMK AO1 SLP214
T10441061





000
SAUS43 KUNR 311257
MTR2WX
METAR K2WX 311256Z AUTO 08013KT M04/M06 A2995 RMK AO1 SLP173
T10441056





000
SAUS43 KUNR 311157
MTRD07
METAR KD07 311156Z AUTO 05015KT M04/M06 A3007 RMK AO1 SLP214
T10441061 11011 21050 55009





000
SAUS43 KUNR 311157
MTR2WX
METAR K2WX 311156Z AUTO 07009KT M06/M08 A2997 RMK AO1 SLP178
T10611078 10000 21067 55014





000
SAUS43 KUNR 311057
MTRD07
METAR KD07 311056Z AUTO 07011KT M04/M06 A3006 RMK AO1 SLP205
T10391056





000
SAUS43 KUNR 311057
MTR2WX
METAR K2WX 311056Z AUTO 06008KT M06/M07 A2996 RMK AO1 SLP174
T10561067





000
SAUS43 KUNR 310957
MTR2WX
METAR K2WX 310956Z AUTO 13005KT M03/M05 A2998 RMK AO1 SLP173
T10331050





000
SAUS43 KUNR 310957
MTRD07
METAR KD07 310956Z AUTO 08006KT M05/M07 A3009 RMK AO1 SLP214
T10501067





000
SAUS43 KUNR 310857
MTR2WX
METAR K2WX 310856Z AUTO 19005KT M07/M08 A3001 RMK AO1 SLP186
T10671083 56008





000
SAUS43 KUNR 310857
MTRD07
METAR KD07 310856Z AUTO 06003KT M04/M07 A3010 RMK AO1 SLP217
T10441067 55006





000
SAUS43 KUNR 310757
MTR2WX
METAR K2WX 310756Z AUTO 07006KT M02/M04 A3001 RMK AO1 SLP183
T10221044





000
SAUS43 KUNR 310757
MTRD07
METAR KD07 310756Z AUTO 03010KT M04/M07 A3009 RMK AO1 SLP212
T10441067





000
SAUS43 KUNR 310657
MTRD07
METAR KD07 310656Z AUTO 04008KT M03/M06 A3011 RMK AO1 SLP220
T10281061 401171072





000
SAUS43 KUNR 310657
MTR2WX
METAR K2WX 310656Z AUTO 00000KT M01/M04 A3003 RMK AO1 SLP187
T10061044 401061072





000
SAUS43 KUNR 310557
MTR2WX
METAR K2WX 310556Z AUTO 05005KT 00/M04 A3004 RMK AO1 SLP193
T00001044 10044 21017 57013





000
SAUS43 KUNR 310557
MTRD07
METAR KD07 310556Z AUTO 00000KT M02/M06 A3012 RMK AO1 SLP224
T10171056 10039 21033 55006





000
SAUS43 KUNR 310458
MTR2WX
METAR K2WX 310456Z AUTO 17003KT M01/M04 A3005 RMK AO1 SLP203
T10111044





000
SAUS43 KUNR 310457
MTRD07
METAR KD07 310456Z AUTO 02005KT M03/M06 A3011 RMK AO1 SLP228
T10281061





000
SAUS43 KUNR 310358
MTR2WX
METAR K2WX 310356Z AUTO 10004KT M01/M05 A3007 RMK AO1 SLP214
T10111050





000
SAUS43 KUNR 310357
MTRD07
METAR KD07 310356Z AUTO 02006KT 00/M06 A3013 RMK AO1 SLP236
T00001056





000
SAUS43 KUNR 310258
MTR2WX
METAR K2WX 310256Z AUTO 36008KT 02/M04 A3008 RMK AO1 SLP221
T00171039 50000





000
SAUS43 KUNR 310258
MTRD07
METAR KD07 310256Z AUTO 01008KT M02/M07 A3014 RMK AO1 SLP246
T10171067 50006





000
SAUS43 KUNR 310158
MTR2WX
METAR K2WX 310156Z AUTO 35010KT 02/M03 A3009 RMK AO1 SLP224
T00221033





000
SAUS43 KUNR 310157
MTRD07
METAR KD07 310156Z AUTO 02007KT 01/M06 A3015 RMK AO1 SLP245
T00111061





000
SAUS43 KUNR 310058
MTRD07
METAR KD07 310056Z AUTO 01008KT 02/M06 A3015 RMK AO1 SLP244
T00221061





000
SAUS43 KUNR 310057
MTR2WX
METAR K2WX 310056Z AUTO 34011KT 04/M03 A3010 RMK AO1 SLP222
T00391033





000
SAUS43 KUNR 302357
MTR2WX
METAR K2WX 302356Z AUTO 34010KT 04/M04 A3008 RMK AO1 SLP214
T00441044 10106 20039 50000





000
SAUS43 KUNR 302357
MTRD07
METAR KD07 302356Z AUTO 01007KT 04/M06 A3012 RMK AO1 SLP231
T00391061 10117 20039 50003





000
SAUS43 KUNR 302257
MTRD07
METAR KD07 302256Z AUTO 35007KT 08/M05 A3012 RMK AO1 SLP229
T00781050





000
SAUS43 KUNR 302257
MTR2WX
METAR K2WX 302256Z AUTO 34009KT 08/M04 A3008 RMK AO1 SLP213
T00781044





000
SAUS43 KUNR 302157
MTRD07
METAR KD07 302156Z AUTO 36013KT 11/M05 A3012 RMK AO1 SLP224
T01111050





000
SAUS43 KUNR 302157
MTR2WX
METAR K2WX 302156Z AUTO 33012KT 09/M04 A3008 RMK AO1 SLP211
T00941044





000
SAUS43 KUNR 302058
MTRD07
METAR KD07 302056Z AUTO 35014KT 11/M06 A3011 RMK AO1 SLP221
T01111056 56016





000
SAUS43 KUNR 302057
MTR2WX
METAR K2WX 302056Z AUTO 35011KT 11/M06 A3008 RMK AO1 SLP207
T01061056 56011





000
SAUS43 KUNR 301957
MTRD07
METAR KD07 301956Z AUTO 31011KT 11/M04 A3012 RMK AO1 SLP223
T01061039





000
SAUS43 KUNR 301957
MTR2WX
METAR K2WX 301956Z AUTO 29010KT 10/M04 A3009 RMK AO1 SLP209
T01001044





000
SAUS43 KUNR 301857
MTR2WX
METAR K2WX 301856Z AUTO 32010KT 09/M04 A3010 RMK AO1 SLP214
T00891039





000
SAUS43 KUNR 301857
MTRD07
METAR KD07 301856Z AUTO 33010KT 09/M04 A3014 RMK AO1 SLP232
T00891039





000
SAUS43 KUNR 301759
MTRD07
METAR KD07 301756Z AUTO 31012KT 07/M05 A3016 RMK AO1 SLP241
T00671050 10067 21072 58005





000
SAUS43 KUNR 301757
MTR2WX
METAR K2WX 301756Z AUTO 31011KT 07/M03 A3011 RMK AO1 SLP222
T00671033 10067 21072 50004





000
SAUS43 KUNR 301657
MTR2WX
METAR K2WX 301656Z AUTO 29009KT 03/M03 A3012 RMK AO1 SLP229
T00331028





000
SAUS43 KUNR 301657
MTRD07
METAR KD07 301656Z AUTO 29006KT 02/M07 A3017 RMK AO1 SLP251
T00221067





000
SAUS43 KUNR 301558
MTRD07
METAR KD07 301556Z AUTO 24006KT M03/M07 A3018 RMK AO1 SLP258
T10281072





000
SAUS43 KUNR 301557
MTR2WX
METAR K2WX 301556Z AUTO 27004KT M01/M06 A3011 RMK AO1 SLP231
T10111061





000
SAUS43 KUNR 301457
MTRD07
METAR KD07 301456Z AUTO 22007KT M06/M08 A3017 RMK AO1 SLP263
T10611083 58005





000
SAUS43 KUNR 301457
MTR2WX
METAR K2WX 301456Z AUTO 29004KT M06/M09 A3010 RMK AO1 SLP233
T10561089 56004





000
SAUS43 KUNR 301358
MTR2WX
METAR K2WX 301356Z AUTO 23004KT M06/M09 A3010 RMK AO1 SLP232
T10561089





000
SAUS43 KUNR 301357
MTRD07
METAR KD07 301356Z AUTO 21005KT M06/M09 A3019 RMK AO1 SLP264
T10611089





000
SAUS43 KUNR 301258
MTR2WX
METAR K2WX 301256Z AUTO 00000KT M04/M09 A3011 RMK AO1 SLP230
T10391089





000
SAUS43 KUNR 301257
MTRD07
METAR KD07 301256Z AUTO 17009KT M06/M09 A3019 RMK AO1 SLP262
T10611089





000
SAUS43 KUNR 301158
MTR2WX
METAR K2WX 301156Z AUTO 00000KT M03/M09 A3011 RMK AO1 SLP229
T10331089 11022 21056 56014





000
SAUS43 KUNR 301157
MTRD07
METAR KD07 301156Z AUTO 17016KT M06/M09 A3019 RMK AO1 SLP258
T10561089 11044 21061 56023





000
SAUS43 KUNR 301058
MTR2WX
METAR K2WX 301056Z AUTO 22003KT M04/M09 A3013 RMK AO1 SLP230
T10441089





000
SAUS43 KUNR 301057
MTRD07
METAR KD07 301056Z AUTO 17015KT M06/M09 A3021 RMK AO1 SLP263
T10611089





000
SAUS43 KUNR 300958
MTRD07
METAR KD07 300956Z AUTO 16015KT M06/M08 A3024 RMK AO1 SLP272
T10611083





000
SAUS43 KUNR 300958
MTR2WX
METAR K2WX 300956Z AUTO 19006KT M04/M09 A3015 RMK AO1 SLP237
T10441089





000
SAUS43 KUNR 300859
MTR2WX
METAR K2WX 300856Z AUTO 19007KT M04/M09 A3016 RMK AO1 SLP241
T10391089 58019





000
SAUS43 KUNR 300857
MTRD07
METAR KD07 300856Z AUTO 16017KT M06/M08 A3026 RMK AO1 SLP281
T10561083 58020





000
SAUS43 KUNR 300757
MTR2WX
METAR K2WX 300756Z AUTO 16008KT M04/M09 A3018 RMK AO1 SLP250
T10391089





000
SAUS43 KUNR 300757
MTRD07
METAR KD07 300756Z AUTO 16015KT M06/M09 A3029 RMK AO1 SLP291
T10561089





000
SAUS43 KUNR 300657
MTRD07
METAR KD07 300656Z AUTO 15014KT M05/M09 A3031 RMK AO1 SLP299
T10501089 400561061





000
SAUS43 KUNR 300657
MTR2WX
METAR K2WX 300656Z AUTO 18008KT M03/M09 A3020 RMK AO1 SLP257
T10281094 400671061





000
SAUS43 KUNR 300558
MTR2WX
METAR K2WX 300556Z AUTO 18010KT M02/M10 A3022 RMK AO1 SLP265
T10221100 10033 21033 56018





000
SAUS43 KUNR 300557
MTRD07
METAR KD07 300556Z AUTO 15015KT M05/M09 A3033 RMK AO1 SLP308
T10501089 10028 21056 58019





000
SAUS43 KUNR 300457
MTRD07
METAR KD07 300456Z AUTO 16012KT M04/M09 A3036 RMK AO1 SLP320
T10441094





000
SAUS43 KUNR 300457
MTR2WX
METAR K2WX 300456Z AUTO 18008KT M03/M11 A3023 RMK AO1 SLP273
T10281106





000
SAUS43 KUNR 300357
MTR2WX
METAR K2WX 300356Z AUTO 15007KT M02/M11 A3026 RMK AO1 SLP283
T10221111





000
SAUS43 KUNR 300357
MTRD07
METAR KD07 300356Z AUTO 16011KT M04/M09 A3037 RMK AO1 SLP325
T10391094





000
SAUS43 KUNR 300257
MTR2WX
METAR K2WX 300256Z AUTO 14007KT M02/M12 A3028 RMK AO1 SLP292
T10171117 58008





000
SAUS43 KUNR 300257
MTRD07
METAR KD07 300256Z AUTO 16010KT M05/M10 A3039 RMK AO1 SLP334
T10501100 58004





000
SAUS43 KUNR 300157
MTR2WX
METAR K2WX 300156Z AUTO 14008KT M01/M12 A3029 RMK AO1 SLP298
T10061122





000
SAUS43 KUNR 300157
MTRD07
METAR KD07 300156Z AUTO 15008KT M02/M10 A3040 RMK AO1 SLP335
T10221100





000
SAUS43 KUNR 300058
MTRD07
METAR KD07 300056Z AUTO 15008KT 00/M11 A3041 RMK AO1 SLP331
T00001106





000
SAUS43 KUNR 300057
MTR2WX
METAR K2WX 300056Z AUTO 14007KT 01/M12 A3030 RMK AO1 SLP298
T00111122





000
SAUS43 KUNR 292357
MTRD07
METAR KD07 292356Z AUTO 16003KT 03/M11 A3040 RMK AO1 SLP326
T00281106 10056 20006 55003





000
SAUS43 KUNR 292357
MTR2WX
METAR K2WX 292356Z AUTO 13005KT 03/M13 A3030 RMK AO1 SLP293
T00331133 10067 20022 56007





000
SAUS43 KUNR 292257
MTR2WX
METAR K2WX 292256Z AUTO 17004KT 06/M13 A3031 RMK AO1 SLP288
T00611133





000
SAUS43 KUNR 292257
MTRD07
METAR KD07 292256Z AUTO 00000KT 05/M11 A3039 RMK AO1 SLP318
T00501106





000
SAUS43 KUNR 292158
MTR2WX
METAR K2WX 292156Z AUTO 00000KT 06/M15 A3031 RMK AO1 SLP290
T00611150





000
SAUS43 KUNR 292157
MTRD07
METAR KD07 292156Z AUTO 35004KT 05/M11 A3040 RMK AO1 SLP321
T00501106





000
SAUS43 KUNR 292058
MTR2WX
METAR K2WX 292056Z AUTO 23006KT 06/M13 A3033 RMK AO1 SLP293
T00611128 57021





000
SAUS43 KUNR 292058
MTRD07
METAR KD07 292056Z AUTO 31004KT 05/M09 A3041 RMK AO1 SLP324
T00501094 58015





000
SAUS43 KUNR 291957
MTR2WX
METAR K2WX 291956Z AUTO 32007KT 05/M10 A3035 RMK AO1 SLP302
T00501100





000
SAUS43 KUNR 291957
MTRD07
METAR KD07 291956Z AUTO 32006KT 04/M07 A3043 RMK AO1 SLP333
T00391072





000
SAUS43 KUNR 291857
MTR2WX
METAR K2WX 291856Z AUTO 25006KT 04/M07 A3038 RMK AO1 SLP313
T00391067





000
SAUS43 KUNR 291857
MTRD07
METAR KD07 291856Z AUTO 33010KT 03/M06 A3045 RMK AO1 SLP341
T00281061





000
SAUS43 KUNR 291757
MTR2WX
METAR K2WX 291756Z AUTO 29009KT 02/M06 A3040 RMK AO1 SLP322
T00221061 10022 21061 51008





000
SAUS43 KUNR 291757
MTRD07
METAR KD07 291756Z AUTO 34013KT 01/M06 A3046 RMK AO1 SLP347
T00061056 10011 21050 50004





000
SAUS43 KUNR 291657
MTRD07
METAR KD07 291656Z AUTO 32013KT M01/M06 A3046 RMK AO1 SLP350
T10111056





000
SAUS43 KUNR 291657
MTR2WX
METAR K2WX 291656Z AUTO 29012KT 00/M04 A3040 RMK AO1 SLP326
T00001044





000
SAUS43 KUNR 291557
MTRD07
METAR KD07 291556Z AUTO 32008KT M03/M06 A3046 RMK AO1 SLP350
T10281056





000
SAUS43 KUNR 291557
MTR2WX
METAR K2WX 291556Z AUTO 32007KT M03/M05 A3038 RMK AO1 SLP325
T10281050





000
SAUS43 KUNR 291457
MTR2WX
METAR K2WX 291456Z AUTO 30008KT M04/M06 A3037 RMK AO1 SLP322
T10441061 51015





000
SAUS43 KUNR 291457
MTRD07
METAR KD07 291456Z AUTO 30009KT M04/M07 A3045 RMK AO1 SLP346
T10391067 53022





000
SAUS43 KUNR 291357
MTRD07
METAR KD07 291356Z AUTO 29007KT M04/M07 A3041 RMK AO1 SLP334
T10441067





000
SAUS43 KUNR 291357
MTR2WX
METAR K2WX 291356Z AUTO 31012KT M06/M07 A3035 RMK AO1 SLP317
T10611072





000
SAUS43 KUNR 291257
MTR2WX
METAR K2WX 291256Z AUTO 30013KT M04/M06 A3034 RMK AO1 SLP310
T10441061





000
SAUS43 KUNR 291257
MTRD07
METAR KD07 291256Z AUTO 30008KT M03/M06 A3040 RMK AO1 SLP328
T10281061





000
SAUS43 KUNR 291204 COR
MTRD07
METAR KD07 291156Z AUTO 33011KT M01/M06 A3038 RMK AO1 PK WND
33027/1113 SLP319 T10111061 10011 21011 53020





000
SAUS43 KUNR 291202 COR
MTRD07
METAR KD07 291156Z AUTO 33011KT M01/M06 A3038 RMK AO1 PK WND
33027/1113 SLP319 T10111061 10011 21011 53020





000
SAUS43 KUNR 291200 COR
MTRD07
METAR KD07 291156Z AUTO 33011KT M01/M06 A3038 RMK AO1 PK WND
33027/1113 SLP319 T10111061 10011 21011 53020





000
SAUS43 KUNR 291157
MTRD07
METAR KD07 291156Z AUTO 33011KT M01/M06 A3038 RMK AO1 PK WND
33027/1113 SLP319 T10111061 10011 21011 53020





000
SAUS43 KUNR 291157
MTR2WX
METAR K2WX 291156Z AUTO 31018KT M03/M05 A3032 RMK AO1 SLP302
T10281050 10011 21033 52009





000
SAUS43 KUNR 291057
MTR2WX
METAR K2WX 291056Z AUTO 31018KT M02/M05 A3031 RMK AO1 SLP297
T10221050





000
SAUS43 KUNR 291057
MTRD07
METAR KD07 291056Z AUTO 33020KT 01/M06 A3035 RMK AO1 PK WND
32028/1024 SLP306 T00061061





000
SAUS43 KUNR 290958
MTRD07
METAR KD07 290956Z AUTO 33019KT 01/M06 A3033 RMK AO1 PK WND
34032/0934 SLP294 T00111061





000
SAUS43 KUNR 290957
MTR2WX
METAR K2WX 290956Z AUTO 32019KT M01/M05 A3031 RMK AO1 PK WND
32028/0946 SLP295 T10111050





000
SAUS43 KUNR 290857
MTRD07
METAR KD07 290856Z AUTO 33021G33KT 01/M05 A3031 RMK AO1 PK WND
32033/0853 SLP285 T00111050 51012





000
SAUS43 KUNR 290857
MTR2WX
METAR K2WX 290856Z AUTO 33017KT 01/M05 A3029 RMK AO1 PK WND
31027/0837 SLP284 T00061050 51018





000
SAUS43 KUNR 290758
MTR2WX
METAR K2WX 290756Z AUTO 32022G30KT 01/M05 A3028 RMK AO1 PK WND
33033/0746 SLP273 T00061050





000
SAUS43 KUNR 290757
MTRD07
METAR KD07 290756Z AUTO 32014KT 01/M04 A3030 RMK AO1 SLP282
T00061039





000
SAUS43 KUNR 290658
MTR2WX
METAR K2WX 290656Z AUTO 32022G28KT 01/M04 A3026 RMK AO1 PK WND
32037/0602 SLP269 T00061044 401060000





000
SAUS43 KUNR 290657
MTRD07
METAR KD07 290656Z AUTO 33014KT 01/M03 A3029 RMK AO1 SLP275
T00061033 401390000





000
SAUS43 KUNR 290558
MTR2WX
METAR K2WX 290556Z AUTO 32022G28KT 01/M04 A3024 RMK AO1 PK WND
32030/0520 SLP258 T00061039 10017 20000 53013





000
SAUS43 KUNR 290557
MTRD07
METAR KD07 290556Z AUTO 34018G26KT 01/M04 A3028 RMK AO1 PK WND
33032/0510 SLP271 T00061039 10017 20006 53025





000
SAUS43 KUNR 290458
MTR2WX
METAR K2WX 290456Z AUTO 31015KT 00/M03 A3023 RMK AO1 PK WND
32031/0412 SLP254 T00001033





000
SAUS43 KUNR 290457
MTRD07
METAR KD07 290456Z AUTO 33024G32KT 01/M04 A3025 RMK AO1 PK WND
34034/0423 SLP261 T00111039





000
SAUS43 KUNR 290357
MTRD07
METAR KD07 290356Z AUTO 33020KT 02/M03 A3022 RMK AO1 PK WND
35032/0301 SLP254 T00171028





000
SAUS43 KUNR 290357
MTR2WX
METAR K2WX 290356Z AUTO 33021G30KT 01/M03 A3020 RMK AO1 PK WND
32032/0327 SLP247 T00061033





000
SAUS43 KUNR 290308 COR
MTRD07
METAR KD07 290256Z AUTO 34024G30KT 02/M03 A3020 RMK AO1 PK WND
33039/0205 SLP248 T00171028 53045





000
SAUS43 KUNR 290306 COR
MTRD07
METAR KD07 290256Z AUTO 34024G30KT 02/M03 A3020 RMK AO1 PK WND
33039/0205 SLP248 T00171028 53045





000
SAUS43 KUNR 290304 COR
MTRD07
METAR KD07 290256Z AUTO 34024G30KT 02/M03 A3020 RMK AO1 PK WND
33039/0205 SLP248 T00171028 53045





000
SAUS43 KUNR 290302 COR
MTRD07
METAR KD07 290256Z AUTO 34024G30KT 02/M03 A3020 RMK AO1 PK WND
33039/0205 SLP248 T00171028 53045





000
SAUS43 KUNR 290300 COR
MTRD07
METAR KD07 290256Z AUTO 34024G30KT 02/M03 A3020 RMK AO1 PK WND
33039/0205 SLP248 T00171028 53045





000
SAUS43 KUNR 290257
MTRD07
METAR KD07 290256Z AUTO 34024G30KT 02/M03 A3020 RMK AO1 PK WND
33039/0205 SLP248 T00171028 53045





000
SAUS43 KUNR 290257
MTR2WX
METAR K2WX 290256Z AUTO 32021KT 01/M03 A3019 RMK AO1 PK WND
31035/0212 SLP250 T00061028 53038





000
SAUS43 KUNR 290158
MTR2WX
METAR K2WX 290156Z AUTO 31025G32KT 01/M03 A3015 RMK AO1 PK WND
33038/0134 SLP230 T00111028





000
SAUS43 KUNR 290157
MTRD07
METAR KD07 290156Z AUTO 33030G35KT 02/M02 A3015 RMK AO1 PK WND
32038/0141 SLP234 T00171022





000
SAUS43 KUNR 290057
MTRD07
METAR KD07 290056Z AUTO 33028G35KT 01/M02 A3009 RMK AO1 PK WND
33039/0022 SLP216 T00111022





000
SAUS43 KUNR 290057
MTR2WX
METAR K2WX 290056Z AUTO 32024G34KT 02/M02 A3011 RMK AO1 PK WND
32034/0056 SLP218 T00171017





000
SAUS43 KUNR 290057
MTRD07
METAR KD07 290056Z AUTO 33028G35KT 01/M02 A3009 RMK AO1 PK WND
33039/0022 SLP216 T00111022





000
SAUS43 KUNR 290057
MTR2WX
METAR K2WX 290056Z AUTO 32024G34KT 02/M02 A3011 RMK AO1 PK WND
32034/0056 SLP218 T00171017





000
SAUS43 KUNR 282357
MTRD07
METAR KD07 282356Z AUTO 34025G32KT 01/M02 A3005 RMK AO1 PK WND
33038/2326 SLP200 T00111022 10139 20011 51059





000
SAUS43 KUNR 282357
MTR2WX
METAR K2WX 282356Z AUTO 33027G36KT 02/M02 A3007 RMK AO1 PK WND
32036/2354 SLP205 T00171017 10094 20011 51052





000
SAUS43 KUNR 282257
MTRD07
METAR KD07 282256Z AUTO 33027G40KT 02/M02 A2999 RMK AO1 PK WND
34041/2210 PRESRR SLP178 T00221017





000
SAUS43 KUNR 282257
MTR2WX
METAR K2WX 282256Z AUTO 32025G33KT 01/M01 A3003 RMK AO1 PK WND
32043/2157 PRESRR SLP193 T00111011





000
SAUS43 KUNR 282157
MTRD07
METAR KD07 282156Z AUTO 34030G37KT 08/00 A2992 RMK AO1 PK WND
33038/2134 SLP147 T00780000





000
SAUS43 KUNR 282157
MTR2WX
METAR K2WX 282156Z AUTO 32030G39KT 01/M01 A2997 RMK AO1 PK WND
31044/2131 SLP168 T00111011





000
SAUS43 KUNR 282058
MTRD07
METAR KD07 282056Z AUTO 33026G36KT 09/M01 A2986 RMK AO1 PK WND
32036/2052 SLP125 T00941011 53012





000
SAUS43 KUNR 282057
MTR2WX
METAR K2WX 282056Z AUTO 32032G40KT 04/00 A2991 RMK AO1 PK WND
31042/1959 SLP143 T00390000 53031





000
SAUS43 KUNR 281957
MTRD07
METAR KD07 281956Z AUTO 32023G31KT 11/M02 A2983 RMK AO1 PK WND
31035/1921 SLP112 T01061022





000
SAUS43 KUNR 281957
MTR2WX
METAR K2WX 281956Z AUTO 31034G42KT 09/M01 A2986 RMK AO1 PK WND
31042/1951 SLP119 T00891006





000
SAUS43 KUNR 281858
MTRD07
METAR KD07 281856Z AUTO 32022G29KT 13/M02 A2982 RMK AO1 PK WND
31030/1844 SLP107 T01281022





000
SAUS43 KUNR 281857
MTR2WX
METAR K2WX 281856Z AUTO 31031G37KT 08/M02 A2983 RMK AO1 PK WND
32039/1833 SLP111 T00831017





000
SAUS43 KUNR 281804 COR
MTRD07
METAR KD07 281756Z AUTO 31018KT 11/M03 A2983 RMK AO1 PK WND
31027/1736 SLP108 T01111028 10111 20033 51017





000
SAUS43 KUNR 281801 COR
MTRD07
METAR KD07 281756Z AUTO 31018KT 11/M03 A2983 RMK AO1 PK WND
31027/1736 SLP108 T01111028 10111 20033 51017





000
SAUS43 KUNR 281759 COR
MTRD07
METAR KD07 281756Z AUTO 31018KT 11/M03 A2983 RMK AO1 PK WND
31027/1736 SLP108 T01111028 10111 20033 51017





000
SAUS43 KUNR 281757
MTR2WX
METAR K2WX 281756Z AUTO 31029G39KT 09/M02 A2981 RMK AO1 PK WND
32041/1745 SLP102 T00891017 10106 20039 51008





000
SAUS43 KUNR 281757
MTRD07
METAR KD07 281756Z AUTO 31018KT 11/M03 A2983 RMK AO1 PK WND
31027/1736 SLP108 T01111028 10111 20033 51017





000
SAUS43 KUNR 281657
MTRD07
METAR KD07 281656Z AUTO 32017KT 09/M02 A2982 RMK AO1 SLP107
T00941017





000
SAUS43 KUNR 281657
MTR2WX
METAR K2WX 281656Z AUTO 31024G32KT 10/M02 A2980 RMK AO1 PK WND
31032/1645 SLP098 T01001022





000
SAUS43 KUNR 281557
MTRD07
METAR KD07 281556Z AUTO 31016KT 08/M01 A2979 RMK AO1 SLP097
T00831006





000
SAUS43 KUNR 281557
MTR2WX
METAR K2WX 281556Z AUTO 29013KT 07/M01 A2980 RMK AO1 SLP099
T00671011





000
SAUS43 KUNR 281457
MTR2WX
METAR K2WX 281456Z AUTO 27009KT 04/M02 A2978 RMK AO1 SLP094
T00391017 53016





000
SAUS43 KUNR 281457
MTRD07
METAR KD07 281456Z AUTO 30010KT 06/M01 A2977 RMK AO1 SLP092
T00561011 53012





000
SAUS43 KUNR 281404 COR
MTRD07
METAR KD07 281356Z AUTO 28010KT 04/M01 A2976 RMK AO1 SLP087
T00441011





000
SAUS43 KUNR 281402 COR
MTRD07
METAR KD07 281356Z AUTO 28010KT 04/M01 A2976 RMK AO1 SLP087
T00441011





000
SAUS43 KUNR 281359
MTRD07
METAR KD07 281356Z AUTO 28010KT 04/M01 A2976 RMK AO1 SLP087
T00441011





000
SAUS43 KUNR 281357
MTR2WX
METAR K2WX 281356Z AUTO 27008KT 06/M01 A2976 RMK AO1 SLP082
T00611011





000
SAUS43 KUNR 281357
MTR2WX
METAR K2WX 281356Z AUTO 27008KT 06/M01 A2976 RMK AO1 SLP082
T00611011





    US Dept of Commerce
    National Oceanic and Atmospheric Administration
    National Weather Service
    1325 East West Highway
    Silver Spring, MD 20910
    Page Author: NWS Internet Services Team
Disclaimer
Information Quality
Credits
Glossary
Privacy Policy
Freedom of Information Act (FOIA)
About Us
Career Opportunities